sensor_id;sensor_type;location;lat;lon;timestamp;temperature;humidity
10702;DHT22;5402;50.004;8.246;2023-10-08T00:02:17;14.80;99.90
10702;DHT22;5402;50.004;8.246;2023-10-08T00:04:48;14.90;99.90
10702;DHT22;5402;50.004;8.246;2023-10-08T00:07:17;14.80;99.90
10702;DHT22;5402;50.004;8.246;2023-10-08T00:09:47;14.80;99.90
10702;DHT22;5402;50.004;8.246;2023-10-08T00:12:14;14.70;99.90
10702;DHT22;5402;50.004;8.246;2023-10-08T00:14:42;14.60;99.90
10702;DHT22;5402;50.004;8.246;2023-10-08T00:17:12;14.50;99.90
10702;DHT22;5402;50.004;8.246;2023-10-08T00:19:39;14.50;99.90
10702;DHT22;5402;50.004;8.246;2023-10-08T00:22:08;14.50;99.90
10702;DHT22;5402;50.004;8.246;2023-10-08T00:24:36;14.50;99.90
10702;DHT22;5402;50.004;8.246;2023-10-08T00:27:06;14.40;99.90
10702;DHT22;5402;50.004;8.246;2023-10-08T00:29:33;14.40;99.90
10702;DHT22;5402;50.004;8.246;2023-10-08T00:32:00;14.40;99.90
10702;DHT22;5402;50.004;8.246;2023-10-08T00:34:38;14.30;99.90
10702;DHT22;5402;50.004;8.246;2023-10-08T00:37:08;14.40;99.90
10702;DHT22;5402;50.004;8.246;2023-10-08T00:39:36;14.50;99.90
10702;DHT22;5402;50.004;8.246;2023-10-08T00:42:05;14.70;99.90
10702;DHT22;5402;50.004;8.246;2023-10-08T00:44:33;14.90;99.90
10702;DHT22;5402;50.004;8.246;2023-10-08T00:47:07;15.20;99.90
10702;DHT22;5402;50.004;8.246;2023-10-08T00:49:37;15.30;99.90
10702;DHT22;5402;50.004;8.246;2023-10-08T00:52:30;15.70;99.90
10702;DHT22;5402;50.004;8.246;2023-10-08T00:55:06;15.80;99.90
10702;DHT22;5402;50.004;8.246;2023-10-08T00:57:47;15.90;99.90
10702;DHT22;5402;50.004;8.246;2023-10-08T01:00:16;16.10;99.90
10702;DHT22;5402;50.004;8.246;2023-10-08T01:02:46;16.20;99.90
10702;DHT22;5402;50.004;8.246;2023-10-08T01:05:16;16.30;99.90
10702;DHT22;5402;50.004;8.246;2023-10-08T01:07:50;16.30;99.90
10702;DHT22;5402;50.004;8.246;2023-10-08T01:10:17;16.50;99.90
10702;DHT22;5402;50.004;8.246;2023-10-08T01:12:47;16.50;99.90
10702;DHT22;5402;50.004;8.246;2023-10-08T01:15:29;16.50;99.90
10702;DHT22;5402;50.004;8.246;2023-10-08T01:17:56;16.50;99.90
10702;DHT22;5402;50.004;8.246;2023-10-08T01:20:27;16.60;99.90
10702;DHT22;5402;50.004;8.246;2023-10-08T01:23:05;16.60;99.90
10702;DHT22;5402;50.004;8.246;2023-10-08T01:25:36;16.70;99.90
10702;DHT22;5402;50.004;8.246;2023-10-08T01:28:04;16.70;99.90
10702;DHT22;5402;50.004;8.246;2023-10-08T01:30:34;16.70;99.90
10702;DHT22;5402;50.004;8.246;2023-10-08T01:33:07;16.70;99.90
10702;DHT22;5402;50.004;8.246;2023-10-08T01:35:38;16.70;99.90
10702;DHT22;5402;50.004;8.246;2023-10-08T01:38:07;16.70;99.90
10702;DHT22;5402;50.004;8.246;2023-10-08T01:40:34;16.70;99.90
10702;DHT22;5402;50.004;8.246;2023-10-08T01:43:01;16.70;99.90
10702;DHT22;5402;50.004;8.246;2023-10-08T01:45:29;16.70;99.90
10702;DHT22;5402;50.004;8.246;2023-10-08T01:47:57;16.60;99.90
10702;DHT22;5402;50.004;8.246;2023-10-08T01:50:24;16.50;99.90
10702;DHT22;5402;50.004;8.246;2023-10-08T01:52:51;16.40;99.90
10702;DHT22;5402;50.004;8.246;2023-10-08T01:55:19;16.30;99.90
10702;DHT22;5402;50.004;8.246;2023-10-08T01:57:48;16.20;99.90
10702;DHT22;5402;50.004;8.246;2023-10-08T02:00:17;16.10;99.90
10702;DHT22;5402;50.004;8.246;2023-10-08T02:02:46;16.10;99.90
10702;DHT22;5402;50.004;8.246;2023-10-08T02:05:12;15.90;99.90
10702;DHT22;5402;50.004;8.246;2023-10-08T02:07:40;15.80;99.90
10702;DHT22;5402;50.004;8.246;2023-10-08T02:10:08;15.80;99.90
10702;DHT22;5402;50.004;8.246;2023-10-08T02:12:37;15.80;99.90
10702;DHT22;5402;50.004;8.246;2023-10-08T02:15:05;15.80;99.90
10702;DHT22;5402;50.004;8.246;2023-10-08T02:17:32;15.70;99.90
10702;DHT22;5402;50.004;8.246;2023-10-08T02:19:59;15.70;99.90
10702;DHT22;5402;50.004;8.246;2023-10-08T02:22:26;15.70;99.90
10702;DHT22;5402;50.004;8.246;2023-10-08T02:24:52;15.70;99.90
10702;DHT22;5402;50.004;8.246;2023-10-08T02:27:20;15.70;99.90
10702;DHT22;5402;50.004;8.246;2023-10-08T02:29:49;15.70;99.90
10702;DHT22;5402;50.004;8.246;2023-10-08T02:32:16;15.80;99.90
10702;DHT22;5402;50.004;8.246;2023-10-08T02:34:44;15.70;99.90
10702;DHT22;5402;50.004;8.246;2023-10-08T02:37:11;15.80;99.90
10702;DHT22;5402;50.004;8.246;2023-10-08T02:39:38;15.70;99.90
10702;DHT22;5402;50.004;8.246;2023-10-08T02:42:06;15.70;99.90
10702;DHT22;5402;50.004;8.246;2023-10-08T02:44:36;15.60;99.90
10702;DHT22;5402;50.004;8.246;2023-10-08T02:47:08;15.60;99.90
10702;DHT22;5402;50.004;8.246;2023-10-08T02:49:37;15.50;99.90
10702;DHT22;5402;50.004;8.246;2023-10-08T02:52:06;15.40;99.90
10702;DHT22;5402;50.004;8.246;2023-10-08T02:54:34;15.40;99.90
10702;DHT22;5402;50.004;8.246;2023-10-08T02:57:03;15.40;99.90
10702;DHT22;5402;50.004;8.246;2023-10-08T02:59:36;15.30;99.90
10702;DHT22;5402;50.004;8.246;2023-10-08T03:02:08;15.30;99.90
10702;DHT22;5402;50.004;8.246;2023-10-08T03:04:40;15.20;99.90
10702;DHT22;5402;50.004;8.246;2023-10-08T03:07:08;15.20;99.90
10702;DHT22;5402;50.004;8.246;2023-10-08T03:09:46;15.10;99.90
10702;DHT22;5402;50.004;8.246;2023-10-08T03:12:15;15.10;99.90
10702;DHT22;5402;50.004;8.246;2023-10-08T03:14:42;15.00;99.90
10702;DHT22;5402;50.004;8.246;2023-10-08T03:17:27;15.00;99.90
10702;DHT22;5402;50.004;8.246;2023-10-08T03:19:55;15.00;99.90
10702;DHT22;5402;50.004;8.246;2023-10-08T03:22:27;15.00;99.90
10702;DHT22;5402;50.004;8.246;2023-10-08T03:24:58;14.90;99.90
10702;DHT22;5402;50.004;8.246;2023-10-08T03:27:39;14.90;99.90
10702;DHT22;5402;50.004;8.246;2023-10-08T03:30:08;14.70;99.90
10702;DHT22;5402;50.004;8.246;2023-10-08T03:32:41;14.60;99.90
10702;DHT22;5402;50.004;8.246;2023-10-08T03:35:08;14.50;99.90
10702;DHT22;5402;50.004;8.246;2023-10-08T03:37:36;14.40;99.90
10702;DHT22;5402;50.004;8.246;2023-10-08T03:40:08;14.30;99.90
10702;DHT22;5402;50.004;8.246;2023-10-08T03:42:50;14.20;99.90
10702;DHT22;5402;50.004;8.246;2023-10-08T03:45:21;14.20;99.90
10702;DHT22;5402;50.004;8.246;2023-10-08T03:48:03;14.20;99.90
10702;DHT22;5402;50.004;8.246;2023-10-08T03:50:31;14.20;99.90
10702;DHT22;5402;50.004;8.246;2023-10-08T03:53:06;14.20;99.90
10702;DHT22;5402;50.004;8.246;2023-10-08T03:55:37;14.10;99.90
10702;DHT22;5402;50.004;8.246;2023-10-08T03:58:06;13.90;99.90
10702;DHT22;5402;50.004;8.246;2023-10-08T04:00:36;13.80;99.90
10702;DHT22;5402;50.004;8.246;2023-10-08T04:03:08;13.90;99.90
10702;DHT22;5402;50.004;8.246;2023-10-08T04:05:37;13.90;99.90
10702;DHT22;5402;50.004;8.246;2023-10-08T04:08:25;13.80;99.90
10702;DHT22;5402;50.004;8.246;2023-10-08T04:11:05;13.80;99.90
10702;DHT22;5402;50.004;8.246;2023-10-08T04:13:34;13.80;99.90
10702;DHT22;5402;50.004;8.246;2023-10-08T04:16:09;13.90;99.90
10702;DHT22;5402;50.004;8.246;2023-10-08T04:18:37;14.00;99.90
10702;DHT22;5402;50.004;8.246;2023-10-08T04:21:06;14.10;99.90
10702;DHT22;5402;50.004;8.246;2023-10-08T04:23:38;14.20;99.90
10702;DHT22;5402;50.004;8.246;2023-10-08T04:26:05;14.20;99.90
10702;DHT22;5402;50.004;8.246;2023-10-08T04:28:32;14.40;99.90
10702;DHT22;5402;50.004;8.246;2023-10-08T04:31:00;14.40;99.90
10702;DHT22;5402;50.004;8.246;2023-10-08T04:33:41;14.30;99.90
10702;DHT22;5402;50.004;8.246;2023-10-08T04:36:08;14.40;99.90
10702;DHT22;5402;50.004;8.246;2023-10-08T04:38:35;14.40;99.90
10702;DHT22;5402;50.004;8.246;2023-10-08T04:41:05;14.40;99.90
10702;DHT22;5402;50.004;8.246;2023-10-08T04:43:34;14.40;99.90
10702;DHT22;5402;50.004;8.246;2023-10-08T04:46:03;14.50;99.90
10702;DHT22;5402;50.004;8.246;2023-10-08T04:48:34;14.30;99.90
10702;DHT22;5402;50.004;8.246;2023-10-08T04:51:03;14.40;99.90
10702;DHT22;5402;50.004;8.246;2023-10-08T04:53:31;14.40;99.90
10702;DHT22;5402;50.004;8.246;2023-10-08T04:56:03;14.40;99.90
10702;DHT22;5402;50.004;8.246;2023-10-08T04:58:31;14.50;99.90
10702;DHT22;5402;50.004;8.246;2023-10-08T05:01:02;14.50;99.90
10702;DHT22;5402;50.004;8.246;2023-10-08T05:03:44;14.40;99.90
10702;DHT22;5402;50.004;8.246;2023-10-08T05:06:34;14.40;99.90
10702;DHT22;5402;50.004;8.246;2023-10-08T05:09:16;14.40;99.90
10702;DHT22;5402;50.004;8.246;2023-10-08T05:11:49;14.40;99.90
10702;DHT22;5402;50.004;8.246;2023-10-08T05:14:34;14.40;99.90
10702;DHT22;5402;50.004;8.246;2023-10-08T05:17:06;14.40;99.90
10702;DHT22;5402;50.004;8.246;2023-10-08T05:19:35;14.40;99.90
10702;DHT22;5402;50.004;8.246;2023-10-08T05:22:23;14.40;99.90
10702;DHT22;5402;50.004;8.246;2023-10-08T05:25:08;14.40;99.90
10702;DHT22;5402;50.004;8.246;2023-10-08T05:27:52;14.40;99.90
10702;DHT22;5402;50.004;8.246;2023-10-08T05:30:25;14.40;99.90
10702;DHT22;5402;50.004;8.246;2023-10-08T05:33:03;14.40;99.90
10702;DHT22;5402;50.004;8.246;2023-10-08T05:35:39;14.40;99.90
10702;DHT22;5402;50.004;8.246;2023-10-08T05:38:22;14.30;99.90
10702;DHT22;5402;50.004;8.246;2023-10-08T05:40:49;14.30;99.90
10702;DHT22;5402;50.004;8.246;2023-10-08T05:43:42;14.30;99.90
10702;DHT22;5402;50.004;8.246;2023-10-08T05:46:21;14.30;99.90
10702;DHT22;5402;50.004;8.246;2023-10-08T05:49:12;14.40;99.90
10702;DHT22;5402;50.004;8.246;2023-10-08T05:52:01;14.40;99.90
10702;DHT22;5402;50.004;8.246;2023-10-08T05:54:52;14.40;99.90
10702;DHT22;5402;50.004;8.246;2023-10-08T05:57:41;14.50;99.90
10702;DHT22;5402;50.004;8.246;2023-10-08T06:00:18;14.50;99.90
10702;DHT22;5402;50.004;8.246;2023-10-08T06:03:11;14.50;99.90
10702;DHT22;5402;50.004;8.246;2023-10-08T06:05:58;14.60;99.90
10702;DHT22;5402;50.004;8.246;2023-10-08T06:08:48;14.60;99.90
10702;DHT22;5402;50.004;8.246;2023-10-08T06:11:48;14.60;99.90
10702;DHT22;5402;50.004;8.246;2023-10-08T06:14:35;14.70;99.90
10702;DHT22;5402;50.004;8.246;2023-10-08T06:17:20;14.80;99.90
10702;DHT22;5402;50.004;8.246;2023-10-08T06:20:22;14.90;99.90
10702;DHT22;5402;50.004;8.246;2023-10-08T06:22:52;14.90;99.90
10702;DHT22;5402;50.004;8.246;2023-10-08T06:25:25;15.00;99.90
10702;DHT22;5402;50.004;8.246;2023-10-08T06:27:55;15.00;99.90
10702;DHT22;5402;50.004;8.246;2023-10-08T06:30:23;15.00;99.90
10702;DHT22;5402;50.004;8.246;2023-10-08T06:32:50;15.00;99.90
10702;DHT22;5402;50.004;8.246;2023-10-08T06:35:19;15.00;99.90
10702;DHT22;5402;50.004;8.246;2023-10-08T06:37:50;14.90;99.90
10702;DHT22;5402;50.004;8.246;2023-10-08T06:40:20;14.80;99.90
10702;DHT22;5402;50.004;8.246;2023-10-08T06:43:05;14.90;99.90
10702;DHT22;5402;50.004;8.246;2023-10-08T06:45:40;14.90;99.90
10702;DHT22;5402;50.004;8.246;2023-10-08T06:48:07;14.90;99.90
10702;DHT22;5402;50.004;8.246;2023-10-08T06:50:34;14.90;99.90
10702;DHT22;5402;50.004;8.246;2023-10-08T06:53:01;15.00;99.90
10702;DHT22;5402;50.004;8.246;2023-10-08T06:55:31;15.00;99.90
10702;DHT22;5402;50.004;8.246;2023-10-08T06:57:59;15.00;99.90
10702;DHT22;5402;50.004;8.246;2023-10-08T07:00:28;15.10;99.90
10702;DHT22;5402;50.004;8.246;2023-10-08T07:03:05;15.10;99.90
10702;DHT22;5402;50.004;8.246;2023-10-08T07:05:34;15.20;99.90
10702;DHT22;5402;50.004;8.246;2023-10-08T07:08:07;15.20;99.90
10702;DHT22;5402;50.004;8.246;2023-10-08T07:10:34;15.30;99.90
10702;DHT22;5402;50.004;8.246;2023-10-08T07:13:01;15.40;99.90
10702;DHT22;5402;50.004;8.246;2023-10-08T07:15:30;15.50;99.90
10702;DHT22;5402;50.004;8.246;2023-10-08T07:17:57;15.60;99.90
10702;DHT22;5402;50.004;8.246;2023-10-08T07:20:34;15.60;99.90
10702;DHT22;5402;50.004;8.246;2023-10-08T07:23:05;15.70;99.90
10702;DHT22;5402;50.004;8.246;2023-10-08T07:25:35;15.80;99.90
10702;DHT22;5402;50.004;8.246;2023-10-08T07:28:04;15.90;99.90
10702;DHT22;5402;50.004;8.246;2023-10-08T07:30:39;16.00;99.90
10702;DHT22;5402;50.004;8.246;2023-10-08T07:33:09;16.00;99.90
10702;DHT22;5402;50.004;8.246;2023-10-08T07:35:43;16.10;99.90
10702;DHT22;5402;50.004;8.246;2023-10-08T07:38:17;16.20;99.90
10702;DHT22;5402;50.004;8.246;2023-10-08T07:40:44;16.20;99.90
10702;DHT22;5402;50.004;8.246;2023-10-08T07:43:10;16.30;99.90
10702;DHT22;5402;50.004;8.246;2023-10-08T07:45:40;16.30;99.90
10702;DHT22;5402;50.004;8.246;2023-10-08T07:48:11;16.40;99.90
10702;DHT22;5402;50.004;8.246;2023-10-08T07:50:44;16.40;99.90
10702;DHT22;5402;50.004;8.246;2023-10-08T07:53:12;16.50;99.90
10702;DHT22;5402;50.004;8.246;2023-10-08T07:55:45;16.50;99.90
10702;DHT22;5402;50.004;8.246;2023-10-08T07:58:13;16.60;99.90
10702;DHT22;5402;50.004;8.246;2023-10-08T08:00:43;16.70;99.90
10702;DHT22;5402;50.004;8.246;2023-10-08T08:03:18;16.80;99.90
10702;DHT22;5402;50.004;8.246;2023-10-08T08:05:45;16.90;99.90
10702;DHT22;5402;50.004;8.246;2023-10-08T08:08:13;16.90;99.90
10702;DHT22;5402;50.004;8.246;2023-10-08T08:10:43;17.00;99.90
10702;DHT22;5402;50.004;8.246;2023-10-08T08:13:11;17.10;99.90
10702;DHT22;5402;50.004;8.246;2023-10-08T08:15:47;17.10;99.90
10702;DHT22;5402;50.004;8.246;2023-10-08T08:18:16;17.20;99.90
10702;DHT22;5402;50.004;8.246;2023-10-08T08:20:48;17.20;99.90
10702;DHT22;5402;50.004;8.246;2023-10-08T08:23:15;17.30;99.90
10702;DHT22;5402;50.004;8.246;2023-10-08T08:25:43;17.40;99.90
10702;DHT22;5402;50.004;8.246;2023-10-08T08:28:21;17.50;99.90
10702;DHT22;5402;50.004;8.246;2023-10-08T08:30:51;17.50;99.90
10702;DHT22;5402;50.004;8.246;2023-10-08T08:33:20;17.60;99.90
10702;DHT22;5402;50.004;8.246;2023-10-08T08:35:57;17.60;99.90
10702;DHT22;5402;50.004;8.246;2023-10-08T08:38:24;17.60;99.90
10702;DHT22;5402;50.004;8.246;2023-10-08T08:40:51;17.50;99.90
10702;DHT22;5402;50.004;8.246;2023-10-08T08:43:19;17.50;99.90
10702;DHT22;5402;50.004;8.246;2023-10-08T08:45:46;17.40;99.90
10702;DHT22;5402;50.004;8.246;2023-10-08T08:48:17;17.40;99.90
10702;DHT22;5402;50.004;8.246;2023-10-08T08:50:46;17.50;99.90
10702;DHT22;5402;50.004;8.246;2023-10-08T08:53:14;17.50;99.90
10702;DHT22;5402;50.004;8.246;2023-10-08T08:55:41;17.60;99.90
10702;DHT22;5402;50.004;8.246;2023-10-08T08:58:09;17.60;99.90
10702;DHT22;5402;50.004;8.246;2023-10-08T09:00:37;17.70;99.90
10702;DHT22;5402;50.004;8.246;2023-10-08T09:03:06;17.90;99.90
10702;DHT22;5402;50.004;8.246;2023-10-08T09:05:34;17.80;99.90
10702;DHT22;5402;50.004;8.246;2023-10-08T09:08:04;17.90;99.90
10702;DHT22;5402;50.004;8.246;2023-10-08T09:10:32;17.90;99.90
10702;DHT22;5402;50.004;8.246;2023-10-08T09:13:03;17.90;99.90
10702;DHT22;5402;50.004;8.246;2023-10-08T09:15:31;18.00;99.90
10702;DHT22;5402;50.004;8.246;2023-10-08T09:17:59;17.90;99.90
10702;DHT22;5402;50.004;8.246;2023-10-08T09:20:29;18.00;99.90
10702;DHT22;5402;50.004;8.246;2023-10-08T09:23:14;18.00;99.90
10702;DHT22;5402;50.004;8.246;2023-10-08T09:25:43;18.10;99.90
10702;DHT22;5402;50.004;8.246;2023-10-08T09:28:11;18.10;99.90
10702;DHT22;5402;50.004;8.246;2023-10-08T09:30:39;18.20;99.90
10702;DHT22;5402;50.004;8.246;2023-10-08T09:33:06;18.30;99.90
10702;DHT22;5402;50.004;8.246;2023-10-08T09:35:33;18.50;99.90
10702;DHT22;5402;50.004;8.246;2023-10-08T09:38:01;18.50;99.90
10702;DHT22;5402;50.004;8.246;2023-10-08T09:40:30;18.60;99.90
10702;DHT22;5402;50.004;8.246;2023-10-08T09:42:57;18.60;99.90
10702;DHT22;5402;50.004;8.246;2023-10-08T09:45:25;18.60;99.90
10702;DHT22;5402;50.004;8.246;2023-10-08T09:47:54;18.50;99.90
10702;DHT22;5402;50.004;8.246;2023-10-08T09:50:28;18.60;99.90
10702;DHT22;5402;50.004;8.246;2023-10-08T09:53:00;18.70;99.90
10702;DHT22;5402;50.004;8.246;2023-10-08T09:55:27;18.70;99.90
10702;DHT22;5402;50.004;8.246;2023-10-08T09:57:56;18.80;99.90
10702;DHT22;5402;50.004;8.246;2023-10-08T10:00:24;18.80;99.90
10702;DHT22;5402;50.004;8.246;2023-10-08T10:02:57;18.90;99.90
10702;DHT22;5402;50.004;8.246;2023-10-08T10:05:29;18.90;99.90
10702;DHT22;5402;50.004;8.246;2023-10-08T10:07:57;19.00;99.90
10702;DHT22;5402;50.004;8.246;2023-10-08T10:10:27;19.00;99.90
10702;DHT22;5402;50.004;8.246;2023-10-08T10:12:59;19.20;99.90
10702;DHT22;5402;50.004;8.246;2023-10-08T10:15:26;19.10;99.90
10702;DHT22;5402;50.004;8.246;2023-10-08T10:17:58;19.10;99.90
10702;DHT22;5402;50.004;8.246;2023-10-08T10:20:38;19.10;99.90
10702;DHT22;5402;50.004;8.246;2023-10-08T10:26:22;19.20;99.90
10702;DHT22;5402;50.004;8.246;2023-10-08T10:29:18;19.10;99.90
10702;DHT22;5402;50.004;8.246;2023-10-08T10:31:46;19.10;99.90
10702;DHT22;5402;50.004;8.246;2023-10-08T10:34:15;19.10;99.90
10702;DHT22;5402;50.004;8.246;2023-10-08T10:36:44;19.20;99.90
10702;DHT22;5402;50.004;8.246;2023-10-08T10:39:13;19.30;99.90
10702;DHT22;5402;50.004;8.246;2023-10-08T10:41:43;19.30;99.90
10702;DHT22;5402;50.004;8.246;2023-10-08T10:44:10;19.30;99.90
10702;DHT22;5402;50.004;8.246;2023-10-08T10:46:41;19.40;99.90
10702;DHT22;5402;50.004;8.246;2023-10-08T10:49:08;19.40;99.90
10702;DHT22;5402;50.004;8.246;2023-10-08T10:51:44;19.40;99.90
10702;DHT22;5402;50.004;8.246;2023-10-08T10:54:12;19.50;99.90
10702;DHT22;5402;50.004;8.246;2023-10-08T10:56:45;19.50;99.90
10702;DHT22;5402;50.004;8.246;2023-10-08T10:59:13;19.70;99.90
10702;DHT22;5402;50.004;8.246;2023-10-08T11:01:46;19.80;99.90
10702;DHT22;5402;50.004;8.246;2023-10-08T11:04:15;19.80;99.90
10702;DHT22;5402;50.004;8.246;2023-10-08T11:06:42;19.90;99.90
10702;DHT22;5402;50.004;8.246;2023-10-08T11:09:11;20.00;99.90
10702;DHT22;5402;50.004;8.246;2023-10-08T11:11:41;20.10;99.90
10702;DHT22;5402;50.004;8.246;2023-10-08T11:14:12;20.30;99.90
10702;DHT22;5402;50.004;8.246;2023-10-08T11:16:42;20.40;99.90
10702;DHT22;5402;50.004;8.246;2023-10-08T11:19:11;20.50;99.90
10702;DHT22;5402;50.004;8.246;2023-10-08T11:21:51;20.60;99.90
10702;DHT22;5402;50.004;8.246;2023-10-08T11:24:29;20.50;99.90
10702;DHT22;5402;50.004;8.246;2023-10-08T11:26:59;20.50;99.90
10702;DHT22;5402;50.004;8.246;2023-10-08T11:29:42;20.50;99.90
10702;DHT22;5402;50.004;8.246;2023-10-08T11:32:10;20.60;99.90
10702;DHT22;5402;50.004;8.246;2023-10-08T11:34:39;20.70;99.90
10702;DHT22;5402;50.004;8.246;2023-10-08T11:37:06;20.70;99.90
10702;DHT22;5402;50.004;8.246;2023-10-08T11:39:45;20.70;99.90
10702;DHT22;5402;50.004;8.246;2023-10-08T11:42:12;20.70;99.90
10702;DHT22;5402;50.004;8.246;2023-10-08T11:45:06;20.70;99.90
10702;DHT22;5402;50.004;8.246;2023-10-08T11:47:44;20.80;99.90
10702;DHT22;5402;50.004;8.246;2023-10-08T11:50:15;20.80;99.90
10702;DHT22;5402;50.004;8.246;2023-10-08T11:52:45;20.80;99.90
10702;DHT22;5402;50.004;8.246;2023-10-08T11:55:15;20.80;99.90
10702;DHT22;5402;50.004;8.246;2023-10-08T12:00:15;21.00;99.90
10702;DHT22;5402;50.004;8.246;2023-10-08T12:02:52;21.00;99.90
10702;DHT22;5402;50.004;8.246;2023-10-08T12:05:21;21.00;99.90
10702;DHT22;5402;50.004;8.246;2023-10-08T12:07:50;21.00;99.90
10702;DHT22;5402;50.004;8.246;2023-10-08T12:10:17;21.10;99.90
10702;DHT22;5402;50.004;8.246;2023-10-08T12:12:48;21.10;99.90
10702;DHT22;5402;50.004;8.246;2023-10-08T12:15:15;21.10;99.90
10702;DHT22;5402;50.004;8.246;2023-10-08T12:17:46;21.20;99.90
10702;DHT22;5402;50.004;8.246;2023-10-08T12:20:35;21.20;99.90
10702;DHT22;5402;50.004;8.246;2023-10-08T12:23:03;21.10;99.90
10702;DHT22;5402;50.004;8.246;2023-10-08T12:25:30;21.10;99.90
10702;DHT22;5402;50.004;8.246;2023-10-08T12:27:58;21.00;99.90
10702;DHT22;5402;50.004;8.246;2023-10-08T12:30:28;20.90;99.90
10702;DHT22;5402;50.004;8.246;2023-10-08T12:32:57;20.90;99.90
10702;DHT22;5402;50.004;8.246;2023-10-08T12:35:24;20.90;99.90
10702;DHT22;5402;50.004;8.246;2023-10-08T12:37:52;21.00;99.90
10702;DHT22;5402;50.004;8.246;2023-10-08T12:40:20;21.00;99.90
10702;DHT22;5402;50.004;8.246;2023-10-08T12:42:49;21.10;99.90
10702;DHT22;5402;50.004;8.246;2023-10-08T12:45:16;21.20;99.90
10702;DHT22;5402;50.004;8.246;2023-10-08T12:47:47;21.20;99.90
10702;DHT22;5402;50.004;8.246;2023-10-08T12:50:15;21.30;99.90
10702;DHT22;5402;50.004;8.246;2023-10-08T12:52:42;21.30;99.90
10702;DHT22;5402;50.004;8.246;2023-10-08T12:55:19;21.40;99.90
10702;DHT22;5402;50.004;8.246;2023-10-08T12:57:50;21.50;99.90
10702;DHT22;5402;50.004;8.246;2023-10-08T13:00:21;21.60;99.90
10702;DHT22;5402;50.004;8.246;2023-10-08T13:02:49;21.60;99.90
10702;DHT22;5402;50.004;8.246;2023-10-08T13:05:19;21.60;99.90
10702;DHT22;5402;50.004;8.246;2023-10-08T13:07:52;21.50;99.90
10702;DHT22;5402;50.004;8.246;2023-10-08T13:10:21;21.60;99.90
10702;DHT22;5402;50.004;8.246;2023-10-08T13:12:48;21.50;99.90
10702;DHT22;5402;50.004;8.246;2023-10-08T13:15:15;21.40;99.90
10702;DHT22;5402;50.004;8.246;2023-10-08T13:17:42;21.40;99.90
10702;DHT22;5402;50.004;8.246;2023-10-08T13:20:11;21.40;99.90
10702;DHT22;5402;50.004;8.246;2023-10-08T13:22:38;21.40;99.90
10702;DHT22;5402;50.004;8.246;2023-10-08T13:25:05;21.40;99.90
10702;DHT22;5402;50.004;8.246;2023-10-08T13:27:35;21.40;99.90
10702;DHT22;5402;50.004;8.246;2023-10-08T13:30:06;21.50;99.90
10702;DHT22;5402;50.004;8.246;2023-10-08T13:32:34;21.50;99.90
10702;DHT22;5402;50.004;8.246;2023-10-08T13:35:02;21.60;99.90
10702;DHT22;5402;50.004;8.246;2023-10-08T13:37:31;21.70;99.90
10702;DHT22;5402;50.004;8.246;2023-10-08T13:39:58;21.90;99.90
10702;DHT22;5402;50.004;8.246;2023-10-08T13:42:25;22.10;99.90
10702;DHT22;5402;50.004;8.246;2023-10-08T13:44:53;22.10;99.90
10702;DHT22;5402;50.004;8.246;2023-10-08T13:47:23;22.10;99.90
10702;DHT22;5402;50.004;8.246;2023-10-08T13:49:51;22.00;99.90
10702;DHT22;5402;50.004;8.246;2023-10-08T13:52:18;21.90;99.90
10702;DHT22;5402;50.004;8.246;2023-10-08T13:54:46;22.00;99.90
10702;DHT22;5402;50.004;8.246;2023-10-08T13:57:17;21.90;99.90
10702;DHT22;5402;50.004;8.246;2023-10-08T13:59:45;21.90;99.90
10702;DHT22;5402;50.004;8.246;2023-10-08T14:02:13;21.80;99.90
10702;DHT22;5402;50.004;8.246;2023-10-08T14:04:41;21.90;99.90
10702;DHT22;5402;50.004;8.246;2023-10-08T14:07:09;21.90;99.90
10702;DHT22;5402;50.004;8.246;2023-10-08T14:09:37;21.90;99.90
10702;DHT22;5402;50.004;8.246;2023-10-08T14:12:07;21.80;99.90
10702;DHT22;5402;50.004;8.246;2023-10-08T14:14:36;21.80;99.90
10702;DHT22;5402;50.004;8.246;2023-10-08T14:17:07;21.80;99.90
10702;DHT22;5402;50.004;8.246;2023-10-08T14:19:41;21.90;99.90
10702;DHT22;5402;50.004;8.246;2023-10-08T14:22:17;22.00;99.90
10702;DHT22;5402;50.004;8.246;2023-10-08T14:24:47;22.00;99.90
10702;DHT22;5402;50.004;8.246;2023-10-08T14:27:24;22.10;99.90
10702;DHT22;5402;50.004;8.246;2023-10-08T14:29:56;22.20;99.90
10702;DHT22;5402;50.004;8.246;2023-10-08T14:32:26;22.30;99.90
10702;DHT22;5402;50.004;8.246;2023-10-08T14:34:55;22.40;99.90
10702;DHT22;5402;50.004;8.246;2023-10-08T14:37:39;22.50;99.90
10702;DHT22;5402;50.004;8.246;2023-10-08T14:40:23;22.70;99.90
10702;DHT22;5402;50.004;8.246;2023-10-08T14:43:07;22.70;99.90
10702;DHT22;5402;50.004;8.246;2023-10-08T14:45:37;22.70;99.90
10702;DHT22;5402;50.004;8.246;2023-10-08T14:48:07;22.70;99.90
10702;DHT22;5402;50.004;8.246;2023-10-08T14:50:40;22.70;99.90
10702;DHT22;5402;50.004;8.246;2023-10-08T14:53:07;22.70;99.90
10702;DHT22;5402;50.004;8.246;2023-10-08T14:55:35;22.50;99.90
10702;DHT22;5402;50.004;8.246;2023-10-08T14:58:03;22.60;99.90
10702;DHT22;5402;50.004;8.246;2023-10-08T15:00:33;22.60;99.90
10702;DHT22;5402;50.004;8.246;2023-10-08T15:03:01;22.70;99.90
10702;DHT22;5402;50.004;8.246;2023-10-08T15:05:29;22.80;99.90
10702;DHT22;5402;50.004;8.246;2023-10-08T15:07:58;22.80;99.90
10702;DHT22;5402;50.004;8.246;2023-10-08T15:10:25;22.80;99.90
10702;DHT22;5402;50.004;8.246;2023-10-08T15:12:52;22.80;99.90
10702;DHT22;5402;50.004;8.246;2023-10-08T15:15:19;22.70;99.90
10702;DHT22;5402;50.004;8.246;2023-10-08T15:17:48;22.70;99.90
10702;DHT22;5402;50.004;8.246;2023-10-08T15:20:16;22.60;99.90
10702;DHT22;5402;50.004;8.246;2023-10-08T15:22:46;22.60;99.90
10702;DHT22;5402;50.004;8.246;2023-10-08T15:25:16;22.60;99.90
10702;DHT22;5402;50.004;8.246;2023-10-08T15:27:43;22.60;99.90
10702;DHT22;5402;50.004;8.246;2023-10-08T15:30:13;22.60;99.90
10702;DHT22;5402;50.004;8.246;2023-10-08T15:32:41;22.50;99.90
10702;DHT22;5402;50.004;8.246;2023-10-08T15:35:10;22.50;99.90
10702;DHT22;5402;50.004;8.246;2023-10-08T15:37:40;22.40;99.90
10702;DHT22;5402;50.004;8.246;2023-10-08T15:40:08;22.40;99.90
10702;DHT22;5402;50.004;8.246;2023-10-08T15:42:46;22.30;99.90
10702;DHT22;5402;50.004;8.246;2023-10-08T15:45:13;22.30;99.90
10702;DHT22;5402;50.004;8.246;2023-10-08T15:47:40;22.20;99.90
10702;DHT22;5402;50.004;8.246;2023-10-08T15:50:08;22.20;99.90
10702;DHT22;5402;50.004;8.246;2023-10-08T15:52:35;22.10;99.90
10702;DHT22;5402;50.004;8.246;2023-10-08T15:55:02;22.00;99.90
10702;DHT22;5402;50.004;8.246;2023-10-08T15:57:30;22.00;99.90
10702;DHT22;5402;50.004;8.246;2023-10-08T15:59:58;21.90;99.90
10702;DHT22;5402;50.004;8.246;2023-10-08T16:02:25;21.90;99.90
10702;DHT22;5402;50.004;8.246;2023-10-08T16:04:51;21.80;99.90
10702;DHT22;5402;50.004;8.246;2023-10-08T16:07:19;21.70;99.90
10702;DHT22;5402;50.004;8.246;2023-10-08T16:09:47;21.60;99.90
10702;DHT22;5402;50.004;8.246;2023-10-08T16:12:14;21.60;99.90
10702;DHT22;5402;50.004;8.246;2023-10-08T16:14:41;21.40;99.90
10702;DHT22;5402;50.004;8.246;2023-10-08T16:17:10;21.40;99.90